Aérodrome :
LOGIN :

S'inscrire | Disclaimer

   EN    FR    IT 

 










Légende :    VFR   VFR Marginal   IFR   IFR Intensif   IFR Très Intensif
Visi : 
Plafond : 
>= 8 km
>= 3000ft
5 à 8 km
1000 à 3000 ft
1500m à 5 km
500 à 1000 ft
800 à 1500m
200 à 500 ft
< 800m
< 200 ft
Symboles :   Orages  Brouillard  Fortes neiges  Fortes précipitations  Vent > 20 kt
SIGMETs :   Divers  Orages  Givrage  Turbulence  Onde Orograph.  Cendres Volcan.






- Altitude de l'aérodrome : 1504 ft
- Code IATA : PNA


LEPP - Noain Pamplona

DERNIER METAR :
  • 272130Z 34003KT 250V050 9999 SCT032 BKN050 10/09 Q1021

METARs EXPIRÉS :
  • 272100Z 15001KT 9999 SCT032 BKN050 09/09 Q1021
  • 272030Z VRB01KT 9999 -RA SCT006 BKN045 10/09 Q1021
  • 272000Z 26002KT 8000 -RA FEW006 BKN040 10/09 Q1021
  • 271930Z 35009KT 9999 SCT039 BKN055 10/09 Q1021
  • 271900Z 34006KT 9999 SCT039 BKN055 10/09 Q1021

TAF TAF LEPP
Valide du 27 à 21h jusqu'au 28 à 21h UTC


272000Z 2721/2821 34008KT 9999 SCT010 SCT050 TX17/2815Z TN07/2807Z
PROB40
TEMPO 2721/2804 3000 -RA BR BKN010



MET'MAP, la Météo Aéronautique d'un coup d'oeil ! - Copyright ORBIFLY Décembre 2007 - Disclaimer

ORBIFLY MET'MAP TEAM :

Programmation & Développement : Alexandra Zaïnal
Sur une idée originale de : Baudouin d'Aumeries
Assistance à la programmation : Marc-Olivier Méhu
Soutien technique & logistique : Manuel Goepfert

Contact : metmap@orbifly.com




SOURCES & CREDITS :

   NOAA